Latest Weather Observations for Moruya Airport

IDN60801

Issued at 4:03 am EDT Saturday 10 December 2016 (issued every 30 minutes, with the page automatically refreshed every 10 minutes)

About weather observations | Map of weather stations | Latest weather observations for NSW | Other Formats
Station Details ID: 069148 Name: MORUYA AIRPORT AWS Lat: -35.90 Lon: 150.14 Height: 4.0 m
Data from the previous 72 hours. | See also: Recent months at Moruya Airport
Date/Time
EDT
Temp
°C
App
Temp
°C
Dew
Point
°C
Rel
Hum
%
Delta-T
°C
Wind Press
QNH
hPa
Press
MSL
hPa
Rain since
9am
mm
Dir  Spd
km/h
Gust
km/h
Spd
kts
Gust
kts
10/04:00am 13.7 11.3 5.3 57 3.9 WSW 7 15 4 8 1019.8 1019.7 0.0
10/03:30am 13.7 10.9 5.3 57 3.9 SW 9 13 5 7 1019.5 1019.4 0.0
10/03:00am 13.6 11.1 5.0 56 4.0 SW 7 15 4 8 1019.3 1019.2 0.0
10/02:30am 14.3 11.9 5.4 55 4.2 WSW 7 13 4 7 1019.1 1019.0 0.0
10/02:00am 14.5 12.0 6.6 59 3.8 WSW 9 15 5 8 1019.0 1018.9 0.0
10/01:30am 14.8 12.7 8.3 65 3.3 SW 9 13 5 7 1018.9 1018.8 0.0
10/01:00am 14.2 11.9 10.4 78 2.0 SW 13 17 7 9 1018.9 1018.8 0.0
10/12:30am 11.8 9.8 8.8 82 1.5 SW 9 13 5 7 1018.8 1018.7 0.0
10/12:20am 12.4 11.0 9.6 83 1.4 WSW 7 11 4 6 1018.7 1018.6 0.0
10/12:07am 12.4 11.0 9.4 82 1.5 WNW 7 9 4 5 1018.6 1018.5 0.0
10/12:00am 12.8 11.0 9.6 81 1.6 NW 9 9 5 5 1018.6 1018.5 0.0
 
Date/Time
EDT
Temp
°C
App
Temp
°C
Dew
Point
°C
Rel
Hum
%
Delta-T
°C
Wind Press
QNH
hPa
Press
MSL
hPa
Rain since
9am
mm
Dir  Spd
km/h
Gust
km/h
Spd
kts
Gust
kts
09/11:30pm 12.8 11.5 9.3 79 1.8 NW 6 11 3 6 1018.5 1018.4 0.0
09/11:00pm 14.1 12.6 9.3 73 2.4 WSW 7 11 4 6 1018.1 1018.0 0.0
09/10:40pm 14.7 13.4 9.1 69 2.9 W 6 9 3 5 1017.9 1017.8 0.0
09/10:30pm 15.5 14.3 9.4 67 3.1 SW 6 11 3 6 1017.8 1017.7 0.0
09/10:23pm 16.1 14.7 9.5 65 3.4 SSW 7 15 4 8 1017.7 1017.6 0.0
09/10:00pm 16.8 13.2 9.7 63 3.7 S 19 26 10 14 1017.3 1017.2 0.0
09/09:30pm 17.1 13.3 9.8 62 3.8 S 20 32 11 17 1017.0 1016.9 0.0
09/09:00pm 17.5 13.9 9.7 60 4.1 S 19 35 10 19 1016.5 1016.4 0.0
09/08:30pm 17.7 14.1 9.8 60 4.2 S 19 26 10 14 1016.0 1015.9 0.0
09/08:00pm 17.8 15.2 9.4 58 4.4 S 13 24 7 13 1015.7 1015.6 0.0
09/07:30pm 18.9 17.0 9.1 53 5.1 SSW 9 19 5 10 1015.0 1014.9 0.0
09/07:00pm 19.6 16.7 9.8 53 5.2 SSE 15 30 8 16 1014.4 1014.3 0.0
09/06:30pm 19.9 16.2 10.3 54 5.2 SSE 20 33 11 18 1013.3 1013.2 0.0
09/06:00pm 19.4 13.5 9.0 51 5.5 SSE 30 41 16 22 1012.5 1012.4 0.0
09/05:30pm 20.2 13.8 9.5 50 5.7 SSE 33 46 18 25 1011.7 1011.6 0.0
09/05:00pm 20.3 12.5 9.8 51 5.6 SSE 41 59 22 32 1010.7 1010.6 0.0
09/04:30pm 21.2 13.3 7.8 42 6.9 SSE 39 57 21 31 1009.8 1009.7 0.0
09/04:18pm 21.3 13.5 6.8 39 7.4 SSE 37 56 20 30 1009.8 1009.7 0.0
09/04:00pm 21.8 14.0 6.5 37 7.8 SSE 37 48 20 26 1009.7 1009.6 0.0
09/03:30pm 21.3 14.1 7.5 41 7.1 SSE 35 54 19 29 1009.4 1009.3 0.0
09/03:01pm 21.6 15.1 6.3 37 7.7 SE 30 48 16 26 1009.3 1009.2 0.0
09/03:00pm 22.3 16.4 7.3 38 7.8 SE 28 44 15 24 1009.3 1009.2 0.0
09/02:30pm 22.4 16.9 5.8 34 8.4 SSE 24 41 13 22 1009.4 1009.3 0.0
09/02:00pm 25.1 18.8 1.3 21 11.2 SSW 24 33 13 18 1009.1 1009.0 0.0
09/01:30pm 24.2 19.0 2.4 24 10.4 SW 19 32 10 17 1009.2 1009.1 0.0
09/01:00pm 23.9 19.1 4.8 29 9.5 SSW 19 26 10 14 1009.1 1009.0 0.0
09/12:30pm 22.8 17.7 2.8 27 9.5 SW 19 33 10 18 1009.2 1009.1 0.0
09/12:00pm 22.9 16.3 4.4 30 9.1 SW 28 41 15 22 1009.0 1008.9 0.0
09/11:30am 21.7 16.3 4.7 33 8.3 WSW 22 35 12 19 1008.9 1008.8 0.0
09/11:00am 21.2 15.8 6.3 38 7.5 WSW 24 41 13 22 1008.9 1008.8 0.0
09/10:30am 20.1 15.8 7.8 45 6.3 SW 20 35 11 19 1008.5 1008.4 0.0
09/10:00am 19.8 15.5 9.4 51 5.5 SSW 22 32 12 17 1008.5 1008.4 0.0
09/09:30am 18.6 14.9 9.4 55 4.8 SSW 19 26 10 14 1008.1 1008.0 0.0
09/09:00am 16.7 14.9 11.0 69 3.1 SSW 11 17 6 9 1007.9 1007.8 0.6
09/08:30am 15.0 13.9 11.8 81 1.7 SW 9 13 5 7 1007.7 1007.6 0.6
09/08:00am 14.4 13.0 10.8 79 1.9 W 9 13 5 7 1007.1 1007.0 0.4
09/07:30am 15.3 12.3 9.2 67 3.1 SSW 15 26 8 14 1006.3 1006.2 0.2
09/07:00am 15.7 12.9 8.4 62 3.7 SSW 13 20 7 11 1005.5 1005.4 0.2
09/06:30am 15.6 13.2 10.2 70 2.8 SSW 13 22 7 12 1004.8 1004.7 0.2
09/06:00am 15.9 14.0 11.7 76 2.3 SSW 13 20 7 11 1004.2 1004.1 0.2
09/05:30am 14.9 14.5 8.4 65 3.3 CALM 0 9 0 5 1003.6 1003.5 0.0
09/05:00am 13.5 11.7 8.1 70 2.7 WNW 7 11 4 6 1002.9 1002.8 0.0
09/04:30am 13.0 11.7 7.7 70 2.6 WSW 4 9 2 5 1002.4 1002.3 0.0
09/04:00am 12.4 11.1 7.7 73 2.3 NW 4 6 2 3 1002.0 1001.9 0.0
09/03:30am 13.4 11.7 8.3 71 2.5 SW 7 11 4 6 1001.6 1001.5 0.0
09/03:00am 13.6 11.8 7.8 68 2.9 WNW 7 11 4 6 1001.1 1001.0 0.0
09/02:30am 17.3 14.3 5.9 47 5.5 WNW 11 13 6 7 1000.8 1000.7 0.0
09/02:00am 17.9 14.4 5.5 44 6.0 W 13 17 7 9 1000.8 1000.7 0.0
09/01:30am 17.5 14.5 5.8 46 5.7 WSW 11 13 6 7 1000.9 1000.8 0.0
09/01:00am 19.2 15.7 5.3 40 6.8 WSW 13 24 7 13 1000.6 1000.5 0.0
09/12:30am 20.1 15.4 5.0 37 7.4 W 19 32 10 17 1000.1 1000.0 0.0
09/12:00am 20.4 15.1 4.8 36 7.6 WSW 22 33 12 18 999.6 999.5 0.0
 
Date/Time
EDT
Temp
°C
App
Temp
°C
Dew
Point
°C
Rel
Hum
%
Delta-T
°C
Wind Press
QNH
hPa
Press
MSL
hPa
Rain since
9am
mm
Dir  Spd
km/h
Gust
km/h
Spd
kts
Gust
kts
08/11:30pm 18.6 18.7 15.5 82 1.8 WNW 9 13 5 7 999.3 999.2 0.0
08/11:00pm 19.3 17.3 16.5 84 1.7 SSE 22 35 12 19 998.6 998.5 0.0
08/10:30pm 19.6 16.8 16.4 82 1.9 SSE 26 35 14 19 998.6 998.5 0.0
08/10:22pm 20.1 17.1 16.7 81 2.1 SE 28 44 15 24 998.6 998.5 0.0
08/10:00pm 25.0 23.9 14.2 51 6.4 N 13 17 7 9 997.9 997.8 0.0
08/09:30pm 25.5 23.1 13.7 48 6.9 NNW 19 32 10 17 997.1 997.0 0.0
08/09:00pm 26.2 22.6 13.0 44 7.7 NW 24 48 13 26 996.4 996.3 0.0
08/08:30pm 27.1 23.5 12.0 39 8.7 NW 22 50 12 27 995.7 995.7 0.0
08/08:00pm 28.2 24.8 10.4 33 10.1 NW 19 65 10 35 995.6 995.6 0.0
08/07:45pm 24.3 23.8 15.0 56 5.6 WSW 11 20 6 11 995.3 995.3 0.0
08/07:30pm 22.9 25.5 19.3 80 2.3 WSW 4 11 2 6 995.9 995.9 0.0
08/07:18pm 23.0 25.6 19.2 79 2.4 NNW 4 7 2 4 995.3 995.3 0.0
08/07:00pm 23.3 24.2 19.2 78 2.6 NNE 13 19 7 10 995.4 995.4 0.0
08/06:30pm 23.0 21.8 19.2 79 2.4 NNE 24 32 13 17 994.4 994.4 0.0
08/06:00pm 23.1 20.7 19.1 78 2.6 NNE 30 43 16 23 993.8 993.8 0.0
08/05:30pm 23.9 21.0 19.2 75 3.0 NNE 33 48 18 26 993.4 993.4 0.0
08/05:00pm 24.3 21.2 19.6 75 3.0 NNE 35 44 19 24 993.4 993.4 0.0
08/04:30pm 23.2 19.4 18.9 77 2.7 NE 37 48 20 26 993.8 993.8 0.0
08/04:00pm 23.8 19.9 19.5 77 2.8 NE 39 50 21 27 994.7 994.7 0.0
08/03:30pm 23.4 20.4 19.1 77 2.7 NNE 33 44 18 24 995.7 995.7 0.0
08/03:00pm 24.3 22.0 19.4 74 3.2 NE 30 41 16 22 996.6 996.5 0.0
08/02:30pm 23.8 20.8 19.1 75 3.0 NE 33 50 18 27 997.5 997.4 0.0
08/02:00pm 24.5 20.8 19.1 72 3.5 NNE 37 50 20 27 998.0 997.9 0.0
08/01:30pm 23.9 19.7 18.8 73 3.2 NNE 39 54 21 29 998.5 998.4 0.0
08/01:00pm 25.2 22.3 18.9 68 4.0 NE 32 41 17 22 999.3 999.2 0.0
08/12:30pm 24.9 22.7 18.6 68 4.0 NE 28 39 15 21 1000.3 1000.2 0.0
08/12:00pm 24.1 22.4 19.0 73 3.3 NE 26 35 14 19 1001.3 1001.2 0.0
08/11:30am 23.7 21.4 18.4 72 3.3 NE 28 37 15 20 1002.1 1002.0 0.0
08/11:00am 23.8 22.0 17.8 69 3.8 NE 24 33 13 18 1002.8 1002.7 0.0
08/10:30am 23.0 21.4 17.5 71 3.4 NE 22 30 12 16 1003.5 1003.4 0.0
08/10:00am 23.5 22.7 18.4 73 3.2 NE 20 24 11 13 1004.3 1004.2 0.0
08/09:30am 22.8 22.3 17.7 73 3.2 NE 17 24 9 13 1004.9 1004.8 0.0
08/09:00am 21.8 21.4 16.3 71 3.3 NE 13 19 7 10 1005.4 1005.3 0.2
08/08:30am 20.9 20.1 16.1 74 2.9 NNE 15 20 8 11 1006.1 1006.0 0.2
08/08:00am 19.1 18.7 16.3 84 1.7 NE 13 15 7 8 1006.6 1006.5 0.2
08/07:30am 18.5 19.8 17.0 91 0.9 NNE 6 9 3 5 1006.9 1006.8 0.2
08/07:00am 17.2 18.2 16.4 95 0.5 NNW 6 11 3 6 1007.2 1007.1 0.2
08/06:30am 15.2 15.5 14.4 95 0.5 NW 6 9 3 5 1007.6 1007.5 0.2
08/06:25am 15.0 15.2 14.2 95 0.5 NW 6 9 3 5 1007.6 1007.5 0.2
08/06:00am 13.8 14.7 13.0 95 0.4 CALM 0 0 0 0 1007.9 1007.8 0.2
08/05:30am 13.3 14.1 12.4 94 0.5 CALM 0 0 0 0 1007.6 1007.5 0.2
08/05:00am 13.1 13.8 12.2 94 0.5 CALM 0 0 0 0 1007.8 1007.7 0.2
08/04:30am 14.5 15.6 13.5 94 0.6 CALM 0 0 0 0 1008.1 1008.0 0.2
08/04:00am 14.2 15.2 13.1 93 0.6 CALM 0 0 0 0 1008.5 1008.4 0.2
08/03:30am 14.8 14.8 13.7 93 0.6 WNW 6 6 3 3 1009.1 1009.0 0.2
08/03:00am 16.2 16.7 15.1 93 0.6 WNW 6 7 3 4 1009.7 1009.6 0.2
08/02:48am 16.2 16.5 15.1 93 0.6 WNW 7 9 4 5 1009.9 1009.8 0.2
08/02:43am 16.0 16.2 14.7 92 0.7 WNW 7 9 4 5 1009.9 1009.8 0.2
08/02:33am 16.2 16.7 14.9 92 0.7 NW 6 7 3 4 1010.0 1009.9 0.2
08/02:30am 16.4 16.9 15.1 92 0.8 NW 6 7 3 4 1010.1 1010.0 0.2
08/02:00am 16.7 17.0 14.9 89 1.0 N 7 9 4 5 1010.6 1010.5 0.2
08/01:39am 17.7 18.3 15.7 88 1.2 NNW 7 11 4 6 1011.1 1011.0 0.2
08/01:30am 17.9 18.2 15.9 88 1.2 N 9 13 5 7 1011.2 1011.1 0.2
08/01:20am 17.9 18.6 16.1 89 1.1 NNW 7 11 4 6 1011.3 1011.2 0.2
08/01:00am 17.9 18.2 16.1 89 1.1 NNW 9 13 5 7 1011.7 1011.6 0.2
08/12:30am 17.9 18.8 16.1 89 1.1 NNW 6 7 3 4 1012.0 1011.9 0.2
08/12:00am 18.0 18.7 16.2 89 1.1 NNW 7 11 4 6 1012.2 1012.1 0.2
 
Date/Time
EDT
Temp
°C
App
Temp
°C
Dew
Point
°C
Rel
Hum
%
Delta-T
°C
Wind Press
QNH
hPa
Press
MSL
hPa
Rain since
9am
mm
Dir  Spd
km/h
Gust
km/h
Spd
kts
Gust
kts
07/11:55pm 17.9 18.6 16.1 89 1.1 NNW 7 11 4 6 1012.3 1012.2 0.2
07/11:41pm 17.9 19.6 16.2 90 1.0 NNW 2 6 1 3 1012.6 1012.5 0.2
07/11:30pm 17.8 19.1 16.1 90 1.0 NW 4 7 2 4 1012.6 1012.5 0.2
07/11:11pm 17.8 18.8 16.3 91 0.9 NW 6 7 3 4 1012.7 1012.6 0.2
07/11:00pm 17.7 19.4 16.2 91 0.9 NW 2 7 1 4 1012.8 1012.7 0.2
07/10:30pm 17.6 18.9 16.1 91 0.9 NW 4 6 2 3 1013.0 1012.9 0.2
07/10:00pm 17.7 19.0 16.2 91 0.9 WNW 4 7 2 4 1013.4 1013.3 0.2
07/09:30pm 17.8 19.8 16.1 90 1.0 CALM 0 0 0 0 1013.8 1013.7 0.2
07/09:00pm 18.0 20.1 16.3 90 1.0 CALM 0 0 0 0 1013.8 1013.7 0.2
07/08:30pm 18.2 19.6 16.4 89 1.1 W 4 7 2 4 1013.9 1013.8 0.2
07/08:27pm 18.2 19.2 16.4 89 1.1 WNW 6 7 3 4 1014.0 1013.9 0.2
07/08:08pm 18.3 18.7 16.3 88 1.2 NNW 9 15 5 8 1014.1 1014.0 0.2
07/08:00pm 18.2 18.9 16.2 88 1.2 NW 7 11 4 6 1014.0 1013.9 0.2
07/07:30pm 18.2 18.6 16.4 89 1.1 NNW 9 11 5 6 1013.9 1013.8 0.2
07/07:00pm 18.6 19.0 16.4 87 1.3 NNE 9 13 5 7 1013.9 1013.8 0.2
07/06:30pm 19.3 18.0 15.8 80 2.1 NNE 17 22 9 12 1013.9 1013.8 0.2
07/06:00pm 20.2 19.3 14.8 71 3.2 NE 13 19 7 10 1013.6 1013.5 0.2
07/05:30pm 20.0 19.0 14.6 71 3.1 ENE 13 17 7 9 1013.5 1013.4 0.2
07/05:00pm 20.0 18.8 14.1 69 3.4 ENE 13 20 7 11 1013.6 1013.5 0.2
07/04:30pm 20.2 18.7 14.3 69 3.4 ENE 15 20 8 11 1013.8 1013.7 0.2
07/04:00pm 20.3 18.3 14.0 67 3.6 ENE 17 19 9 10 1014.1 1014.0 0.2
07/03:30pm 20.6 19.1 14.3 67 3.7 ENE 15 19 8 10 1014.2 1014.1 0.2
07/03:00pm 21.1 18.9 14.5 66 3.9 ENE 19 20 10 11 1014.3 1014.2 0.2
07/02:30pm 21.4 18.8 13.8 62 4.4 ENE 20 24 11 13 1014.3 1014.2 0.2
07/02:00pm 20.8 18.4 13.7 64 4.1 E 19 22 10 12 1014.7 1014.6 0.2
07/01:30pm 21.1 19.0 13.5 62 4.4 E 17 20 9 11 1014.8 1014.7 0.2
07/01:00pm 21.0 19.2 14.4 66 3.8 E 17 20 9 11 1015.4 1015.3 0.2
07/12:30pm 20.2 18.3 12.9 63 4.1 E 15 19 8 10 1015.6 1015.5 0.2
07/12:00pm 20.5 19.1 13.5 64 4.0 ENE 13 17 7 9 1015.9 1015.8 0.2
07/11:30am 20.8 19.6 14.0 65 3.9 E 13 17 7 9 1016.1 1016.0 0.0
07/11:00am 19.5 17.8 12.5 64 3.9 SE 13 17 7 9 1016.1 1016.0 0.0
07/10:30am 19.2 17.5 12.5 65 3.7 ESE 13 17 7 9 1016.0 1015.9 0.0
07/10:00am 19.0 17.3 12.3 65 3.7 SE 13 17 7 9 1016.3 1016.2 0.0
07/09:30am 18.3 18.8 12.7 70 3.1 S 2 11 1 6 1016.4 1016.3 0.0
07/09:00am 17.6 18.2 13.1 75 2.5 S 2 7 1 4 1016.4 1016.3 0.8
07/08:30am 16.7 15.8 12.5 76 2.3 SW 9 13 5 7 1016.3 1016.2 0.8
07/08:00am 16.6 16.1 13.9 84 1.5 WSW 9 11 5 6 1016.3 1016.2 0.8
07/07:30am 15.5 15.0 13.9 90 0.9 WSW 9 13 5 7 1016.1 1016.0 0.8
07/07:00am 15.6 15.7 14.5 93 0.6 W 7 11 4 6 1015.9 1015.8 0.8
07/06:30am 15.5 15.6 14.4 93 0.6 WNW 7 9 4 5 1015.3 1015.2 0.8
07/06:00am 15.4 15.6 14.3 93 0.6 W 6 7 3 4 1015.0 1014.9 0.8
07/05:30am 15.4 15.4 14.3 93 0.6 WNW 7 9 4 5 1014.7 1014.6 0.8
07/05:00am 15.7 15.9 14.7 94 0.6 WNW 7 9 4 5 1014.5 1014.4 0.8
07/04:30am 15.7 15.9 14.7 94 0.6 W 7 11 4 6 1014.0 1013.9 0.8

Other Formats:

Comma delimited format used in spreadsheet applications
http://www.bom.gov.au/fwo/IDN60801/IDN60801.95937.axf

JavaScript Object Notation format (JSON) in row-major order
http://www.bom.gov.au/fwo/IDN60801/IDN60801.95937.json